createdAt,value
2019-04-05T00:00:38.003Z,0
2019-04-05T00:01:38.155Z,0
2019-04-05T00:02:38.297Z,0
2019-04-05T00:03:38.431Z,0
2019-04-05T00:04:38.612Z,0
2019-04-05T00:05:38.788Z,0
2019-04-05T00:06:38.922Z,0
2019-04-05T00:07:39.060Z,0
2019-04-05T00:08:39.192Z,0
2019-04-05T00:09:39.354Z,0
2019-04-05T00:10:39.487Z,0
2019-04-05T00:11:39.650Z,0
2019-04-05T00:12:39.790Z,0
2019-04-05T00:13:39.983Z,0
2019-04-05T00:14:40.157Z,0
2019-04-05T00:15:40.290Z,0
2019-04-05T00:16:40.463Z,0
2019-04-05T00:17:40.591Z,0
2019-04-05T00:18:40.745Z,0
2019-04-05T00:19:40.883Z,0
2019-04-05T00:20:41.038Z,0
2019-04-05T00:21:42.176Z,0
2019-04-05T00:22:41.192Z,0
2019-04-05T00:23:41.346Z,0
2019-04-05T00:24:42.476Z,0
2019-04-05T00:25:41.560Z,0
2019-04-05T00:26:41.743Z,0
2019-04-05T00:27:41.714Z,0
2019-04-05T00:28:41.855Z,0
2019-04-05T00:29:41.993Z,0
2019-04-05T00:30:42.144Z,0
2019-04-05T00:31:42.304Z,0
2019-04-05T00:32:42.470Z,0
2019-04-05T00:33:42.625Z,0
2019-04-05T00:34:42.768Z,0
2019-04-05T00:35:42.929Z,0
2019-04-05T00:36:43.078Z,0
2019-04-05T00:37:43.226Z,0
2019-04-05T00:38:43.357Z,0
2019-04-05T00:39:43.514Z,0
2019-04-05T00:40:43.650Z,0
2019-04-05T00:41:43.806Z,0
2019-04-05T00:42:43.971Z,0
2019-04-05T00:43:44.135Z,0
2019-04-05T00:44:44.285Z,0
2019-04-05T00:45:44.454Z,0
2019-04-05T00:46:44.884Z,0
2019-04-05T00:47:44.751Z,0
2019-04-05T00:48:44.915Z,0
2019-04-05T00:49:45.057Z,0
2019-04-05T00:50:45.208Z,0
2019-04-05T00:51:45.366Z,0
2019-04-05T00:52:45.539Z,0
2019-04-05T00:53:45.707Z,0
2019-04-05T00:54:45.847Z,0
2019-04-05T00:55:45.984Z,0
2019-04-05T00:56:46.146Z,0
2019-04-05T00:57:47.180Z,0
2019-04-05T00:58:46.439Z,0
2019-04-05T00:59:46.565Z,0
2019-04-05T01:00:46.719Z,0
2019-04-05T01:01:46.853Z,0
2019-04-05T01:02:47.024Z,0
2019-04-05T01:03:47.155Z,0
2019-04-05T01:04:47.298Z,0
2019-04-05T01:05:48.441Z,0
2019-04-05T01:06:47.496Z,0
2019-04-05T01:07:47.644Z,0
2019-04-05T01:08:47.783Z,0
2019-04-05T01:09:47.911Z,0
2019-04-05T01:10:48.061Z,0
2019-04-05T01:11:48.220Z,0
2019-04-05T01:12:48.388Z,0
2019-04-05T01:13:48.536Z,0
2019-04-05T01:14:48.695Z,0
2019-04-05T01:15:48.817Z,0
2019-04-05T01:16:48.994Z,0
2019-04-05T01:17:49.121Z,0
2019-04-05T01:18:49.292Z,0
2019-04-05T01:19:49.449Z,0
2019-04-05T01:20:49.599Z,0
2019-04-05T01:21:49.745Z,0
2019-04-05T01:22:49.891Z,0
2019-04-05T01:23:50.029Z,0
2019-04-05T01:24:50.185Z,0
2019-04-05T01:25:50.325Z,0
2019-04-05T01:26:50.503Z,0
2019-04-05T01:27:50.650Z,0
2019-04-05T01:28:50.783Z,0
2019-04-05T01:29:50.954Z,0
2019-04-05T01:30:51.108Z,0
2019-04-05T01:31:51.281Z,0
2019-04-05T01:32:51.433Z,0
2019-04-05T01:33:51.602Z,0
2019-04-05T01:34:51.746Z,0
2019-04-05T01:35:52.917Z,0
2019-04-05T01:36:51.956Z,0
2019-04-05T01:37:52.095Z,0
2019-04-05T01:38:52.226Z,0
2019-04-05T01:39:52.365Z,0
2019-04-05T01:40:52.519Z,0
2019-04-05T01:41:52.663Z,0
2019-04-05T01:42:52.774Z,0
2019-04-05T01:43:52.924Z,0
2019-04-05T01:44:53.057Z,0
2019-04-05T01:45:54.223Z,0
2019-04-05T01:46:53.340Z,0
2019-04-05T01:47:53.473Z,0
2019-04-05T01:48:53.612Z,0
2019-04-05T01:49:53.770Z,0
2019-04-05T01:50:53.917Z,0
2019-04-05T01:51:54.045Z,0
2019-04-05T01:52:54.201Z,0
2019-04-05T01:53:54.349Z,0
2019-04-05T01:54:54.506Z,0
2019-04-05T01:55:54.661Z,0
2019-04-05T01:56:54.803Z,0
2019-04-05T01:57:54.969Z,0
2019-04-05T01:58:55.147Z,0
2019-04-05T01:59:55.307Z,0
2019-04-05T02:00:55.444Z,0
2019-04-05T02:01:55.574Z,0
2019-04-05T02:02:55.720Z,0
2019-04-05T02:03:55.863Z,0
2019-04-05T02:04:56.009Z,0
2019-04-05T02:05:56.184Z,0
2019-04-05T02:06:56.384Z,0
2019-04-05T02:07:56.472Z,0
2019-04-05T02:08:56.611Z,0
2019-04-05T02:09:56.775Z,0
2019-04-05T02:10:56.947Z,0
2019-04-05T02:11:57.096Z,0
2019-04-05T02:12:57.230Z,0
2019-04-05T02:13:57.374Z,0
2019-04-05T02:14:57.527Z,0
2019-04-05T02:16:05.912Z,0
2019-04-05T02:16:58.772Z,0
2019-04-05T02:17:57.802Z,0
2019-04-05T02:18:57.952Z,0
2019-04-05T02:19:58.111Z,0
2019-04-05T02:20:58.260Z,0
2019-04-05T02:21:58.417Z,0
2019-04-05T02:22:58.577Z,0
2019-04-05T02:23:58.718Z,0
2019-04-05T02:24:58.875Z,0
2019-04-05T02:25:59.058Z,0
2019-04-05T02:26:59.232Z,0
2019-04-05T02:27:59.381Z,0
2019-04-05T02:28:59.514Z,0
2019-04-05T02:29:59.650Z,0
2019-04-05T02:30:59.795Z,0
2019-04-05T02:31:59.947Z,0
2019-04-05T02:33:00.078Z,0
2019-04-05T02:34:00.252Z,0
2019-04-05T02:35:00.397Z,0
2019-04-05T02:36:00.527Z,0
2019-04-05T02:37:00.678Z,0
2019-04-05T02:38:00.834Z,0
2019-04-05T02:39:00.986Z,0
2019-04-05T02:40:01.155Z,0
2019-04-05T02:41:01.283Z,0
2019-04-05T02:42:01.441Z,0
2019-04-05T02:43:01.591Z,0
2019-04-05T02:44:01.744Z,0
2019-04-05T02:45:01.876Z,0
2019-04-05T02:46:03.023Z,0
2019-04-05T02:47:03.081Z,0
2019-04-05T02:48:02.132Z,0
2019-04-05T02:49:02.283Z,0
2019-04-05T02:50:02.416Z,0
2019-04-05T02:51:02.548Z,0
2019-04-05T02:52:02.688Z,0
2019-04-05T02:53:02.835Z,0
2019-04-05T02:54:02.982Z,0
2019-04-05T02:55:03.161Z,0
2019-04-05T02:56:03.547Z,0
2019-04-05T02:57:03.451Z,0
2019-04-05T02:58:03.615Z,0
2019-04-05T02:59:03.766Z,0
2019-04-05T03:00:03.917Z,0
2019-04-05T03:01:04.044Z,0
2019-04-05T03:02:04.175Z,0
2019-04-05T03:03:04.303Z,0
2019-04-05T03:04:04.482Z,0
2019-04-05T03:05:04.606Z,0
2019-04-05T03:06:04.751Z,0
2019-04-05T03:07:04.870Z,0
2019-04-05T03:08:04.991Z,0
2019-04-05T03:09:05.178Z,0
2019-04-05T03:10:05.307Z,0
2019-04-05T03:11:05.462Z,0
2019-04-05T03:12:05.609Z,0
2019-04-05T03:13:05.750Z,0
2019-04-05T03:14:05.919Z,0
2019-04-05T03:15:06.039Z,0
2019-04-05T03:16:06.178Z,0
2019-04-05T03:17:06.312Z,0
2019-04-05T03:18:06.445Z,0
2019-04-05T03:19:06.605Z,0
2019-04-05T03:20:06.744Z,0
2019-04-05T03:21:06.873Z,0
2019-04-05T03:22:08.003Z,0
2019-04-05T03:23:07.058Z,0
2019-04-05T03:24:07.193Z,0
2019-04-05T03:25:07.399Z,0
2019-04-05T03:26:07.475Z,0
2019-04-05T03:27:07.647Z,0
2019-04-05T03:28:07.831Z,0
2019-04-05T03:29:07.981Z,0
2019-04-05T03:30:08.155Z,0
2019-04-05T03:31:08.283Z,0
2019-04-05T03:32:08.471Z,0
2019-04-05T03:33:08.599Z,0
2019-04-05T03:34:08.740Z,0
2019-04-05T03:35:08.889Z,0
2019-04-05T03:36:09.015Z,0
2019-04-05T03:37:09.179Z,0
2019-04-05T03:38:09.316Z,0
2019-04-05T03:39:09.451Z,0
2019-04-05T03:40:09.618Z,0
2019-04-05T03:41:09.752Z,0
2019-04-05T03:42:09.926Z,0
2019-04-05T03:43:10.052Z,0
2019-04-05T03:44:10.203Z,0
2019-04-05T03:45:10.311Z,0
2019-04-05T03:46:10.462Z,0
2019-04-05T03:47:10.608Z,0
2019-04-05T03:48:10.738Z,0
2019-04-05T03:49:10.875Z,0
2019-04-05T03:50:11.026Z,0
2019-04-05T03:51:11.162Z,0
2019-04-05T03:52:11.280Z,0
2019-04-05T03:53:11.415Z,0
2019-04-05T03:54:11.546Z,0
2019-04-05T03:55:11.691Z,0
2019-04-05T03:56:11.823Z,0
2019-04-05T03:57:11.984Z,0
2019-04-05T03:58:12.144Z,0
2019-04-05T03:59:12.305Z,0
2019-04-05T04:00:12.433Z,0
2019-04-05T04:01:12.586Z,0
2019-04-05T04:02:12.731Z,0
2019-04-05T04:03:12.905Z,0
2019-04-05T04:04:13.031Z,0
2019-04-05T04:05:13.170Z,0
2019-04-05T04:06:13.293Z,0
2019-04-05T04:07:13.460Z,0
2019-04-05T04:08:13.739Z,0
2019-04-05T04:09:14.701Z,0
2019-04-05T04:10:14.813Z,0
2019-04-05T04:11:13.802Z,0
2019-04-05T04:12:13.967Z,0
2019-04-05T04:13:14.102Z,0
2019-04-05T04:14:14.247Z,0
2019-04-05T04:15:14.815Z,0
2019-04-05T04:16:14.523Z,0
2019-04-05T04:17:14.696Z,0
2019-04-05T04:18:14.801Z,0
2019-04-05T04:19:14.940Z,0
2019-04-05T04:20:15.073Z,0
2019-04-05T04:21:15.203Z,0
2019-04-05T04:22:15.387Z,0
2019-04-05T04:23:15.522Z,0
2019-04-05T04:24:15.683Z,0
2019-04-05T04:25:15.803Z,0
2019-04-05T04:26:15.940Z,0
2019-04-05T04:27:16.094Z,0
2019-04-05T04:28:16.244Z,0
2019-04-05T04:29:16.413Z,0
2019-04-05T04:30:16.555Z,0
2019-04-05T04:31:16.709Z,0
2019-04-05T04:32:16.852Z,0
2019-04-05T04:33:16.986Z,0
2019-04-05T04:34:17.145Z,0
2019-04-05T04:35:17.280Z,0
2019-04-05T04:36:17.408Z,0
2019-04-05T04:37:17.582Z,0
2019-04-05T04:38:17.769Z,0
2019-04-05T04:39:17.919Z,0
2019-04-05T04:40:18.047Z,0
2019-04-05T04:41:18.202Z,0
2019-04-05T04:42:18.340Z,0
2019-04-05T04:43:18.484Z,0
2019-04-05T04:44:18.637Z,0
2019-04-05T04:45:18.779Z,0
2019-04-05T04:46:18.934Z,0
2019-04-05T04:47:26.008Z,0
2019-04-05T04:48:20.178Z,0
2019-04-05T04:49:19.219Z,0
2019-04-05T04:50:19.367Z,0
2019-04-05T04:51:19.513Z,0
2019-04-05T04:52:19.776Z,0
2019-04-05T04:53:19.874Z,0
2019-04-05T04:54:19.992Z,0
2019-04-05T04:55:20.176Z,0
2019-04-05T04:56:20.306Z,0
2019-04-05T04:57:23.844Z,0
2019-04-05T04:58:21.359Z,0
2019-04-05T04:59:21.494Z,0
2019-04-05T05:00:20.748Z,0
2019-04-05T05:01:20.736Z,0
2019-04-05T05:02:20.875Z,1
2019-04-05T05:03:21.027Z,1
2019-04-05T05:04:21.165Z,1
2019-04-05T05:05:21.317Z,1
2019-04-05T05:06:21.482Z,0
2019-04-05T05:07:21.772Z,1
2019-04-05T05:08:21.750Z,1
2019-04-05T05:09:21.932Z,1
2019-04-05T05:10:22.067Z,1
2019-04-05T05:11:22.197Z,2
2019-04-05T05:12:22.352Z,1
2019-04-05T05:13:22.499Z,1
2019-04-05T05:14:22.675Z,2
2019-04-05T05:15:22.814Z,2
2019-04-05T05:16:22.944Z,1
2019-04-05T05:17:23.062Z,2
2019-04-05T05:18:24.169Z,2
2019-04-05T05:19:23.233Z,2
2019-04-05T05:20:23.427Z,2
2019-04-05T05:21:23.407Z,2
2019-04-05T05:22:23.592Z,2
2019-04-05T05:23:23.736Z,3
2019-04-05T05:24:24.025Z,2
2019-04-05T05:25:24.091Z,3
2019-04-05T05:26:24.127Z,3
2019-04-05T05:27:24.207Z,2
2019-04-05T05:28:24.340Z,4
2019-04-05T05:29:25.481Z,3
2019-04-05T05:30:24.526Z,3
2019-04-05T05:31:24.668Z,3
2019-04-05T05:32:24.833Z,3
2019-04-05T05:33:24.972Z,4
2019-04-05T05:34:25.110Z,5
2019-04-05T05:35:25.310Z,5
2019-04-05T05:36:25.375Z,5
2019-04-05T05:37:25.380Z,5
2019-04-05T05:38:26.502Z,5
2019-04-05T05:39:25.581Z,5
2019-04-05T05:40:34.498Z,5
2019-04-05T05:41:26.842Z,5
2019-04-05T05:42:25.901Z,5
2019-04-05T05:43:26.044Z,5
2019-04-05T05:44:26.212Z,5
2019-04-05T05:45:26.350Z,6
2019-04-05T05:46:26.516Z,6
2019-04-05T05:47:26.651Z,7
2019-04-05T05:48:26.796Z,7
2019-04-05T05:49:27.027Z,8
2019-04-05T05:50:26.976Z,7
2019-04-05T05:51:27.117Z,8
2019-04-05T05:52:27.305Z,7
2019-04-05T05:53:27.489Z,7
2019-04-05T05:54:27.659Z,7
2019-04-05T05:55:30.013Z,6
2019-04-05T05:56:27.805Z,6
2019-04-05T05:57:27.789Z,6
2019-04-05T05:58:27.907Z,6
2019-04-05T05:59:30.186Z,6
2019-04-05T06:00:31.006Z,6
2019-04-05T06:01:28.277Z,6
2019-04-05T06:02:29.246Z,5
2019-04-05T06:03:31.053Z,6
2019-04-05T06:04:31.116Z,6
2019-04-05T06:05:28.922Z,6
2019-04-05T06:06:29.265Z,7
2019-04-05T06:07:29.258Z,7
2019-04-05T06:08:29.566Z,8
2019-04-05T06:09:29.430Z,8
2019-04-05T06:10:29.579Z,8
2019-04-05T06:11:29.625Z,9
2019-04-05T06:12:29.620Z,9
2019-04-05T06:13:29.652Z,9
2019-04-05T06:14:29.817Z,9
2019-04-05T06:15:30.096Z,11
2019-04-05T06:16:31.122Z,12
2019-04-05T06:17:31.197Z,11
2019-04-05T06:18:30.256Z,13
2019-04-05T06:19:30.420Z,13
2019-04-05T06:20:30.448Z,14
2019-04-05T06:21:30.440Z,15
2019-04-05T06:22:30.617Z,15
2019-04-05T06:23:33.775Z,15
2019-04-05T06:24:30.911Z,15
2019-04-05T06:25:31.055Z,16
2019-04-05T06:26:31.058Z,16
2019-04-05T06:27:31.057Z,16
2019-04-05T06:28:31.291Z,16
2019-04-05T06:29:31.273Z,16
2019-04-05T06:30:31.280Z,18
2019-04-05T06:31:31.478Z,19
2019-04-05T06:32:31.592Z,20
2019-04-05T06:33:32.134Z,21
2019-04-05T06:34:31.726Z,22
2019-04-05T06:35:33.007Z,22
2019-04-05T06:36:32.219Z,22
2019-04-05T06:37:32.083Z,21
2019-04-05T06:38:32.256Z,20
2019-04-05T06:39:32.470Z,20
2019-04-05T06:40:40.441Z,22
2019-04-05T06:41:34.232Z,24
2019-04-05T06:42:32.771Z,26
2019-04-05T06:43:32.767Z,29
2019-04-05T06:44:32.767Z,30
2019-04-05T06:45:32.922Z,32
2019-04-05T06:46:33.149Z,31
2019-04-05T06:47:33.167Z,32
2019-04-05T06:48:33.180Z,31
2019-04-05T06:49:33.384Z,29
2019-04-05T06:50:33.389Z,29
2019-04-05T06:51:33.657Z,28
2019-04-05T06:52:33.645Z,29
2019-04-05T06:53:33.782Z,30
2019-04-05T06:54:35.796Z,30
2019-04-05T06:55:46.713Z,32
2019-04-05T06:56:37.987Z,34
2019-04-05T06:57:45.885Z,37
2019-04-05T06:58:41.592Z,39
2019-04-05T06:59:37.243Z,40
2019-04-05T07:00:35.315Z,39
2019-04-05T07:01:37.883Z,38
2019-04-05T07:02:34.590Z,40
2019-04-05T07:03:34.604Z,41
2019-04-05T07:04:34.623Z,41
2019-04-05T07:05:36.132Z,42
2019-04-05T07:06:36.889Z,42
2019-04-05T07:07:37.281Z,43
2019-04-05T07:08:35.632Z,44
2019-04-05T07:09:40.661Z,45
2019-04-05T07:10:39.637Z,45
2019-04-05T07:11:35.319Z,45
2019-04-05T07:12:35.976Z,45
2019-04-05T07:13:35.745Z,46
2019-04-05T07:14:38.647Z,47
2019-04-05T07:15:39.784Z,46
2019-04-05T07:16:35.787Z,45
2019-04-05T07:17:35.814Z,43
2019-04-05T07:18:36.247Z,43
2019-04-05T07:19:35.979Z,43
2019-04-05T07:20:37.219Z,44
2019-04-05T07:21:36.527Z,46
2019-04-05T07:22:39.507Z,46
2019-04-05T07:23:38.380Z,49
2019-04-05T07:24:38.468Z,50
2019-04-05T07:25:39.426Z,52
2019-04-05T07:26:36.829Z,53
2019-04-05T07:27:36.849Z,52
2019-04-05T07:28:36.867Z,51
2019-04-05T07:29:37.288Z,52
2019-04-05T07:30:37.101Z,53
2019-04-05T07:31:37.403Z,52
2019-04-05T07:32:37.444Z,53
2019-04-05T07:33:37.653Z,51
2019-04-05T07:34:37.447Z,46
2019-04-05T07:35:37.475Z,48
2019-04-05T07:36:37.891Z,49
2019-04-05T07:37:38.388Z,50
2019-04-05T07:38:37.790Z,52
2019-04-05T07:39:37.820Z,51
2019-04-05T07:40:37.832Z,49
2019-04-05T07:41:37.839Z,55
2019-04-05T07:42:37.883Z,61
2019-04-05T07:43:38.072Z,62
2019-04-05T07:44:38.244Z,62
2019-04-05T07:45:38.228Z,65
2019-04-05T07:46:39.410Z,64
2019-04-05T07:47:39.483Z,61
2019-04-05T07:48:44.460Z,63
2019-04-05T07:49:38.722Z,66
2019-04-05T07:50:38.864Z,69
2019-04-05T07:51:38.918Z,68
2019-04-05T07:52:38.929Z,69
2019-04-05T07:53:38.945Z,64
2019-04-05T07:54:39.028Z,65
2019-04-05T07:55:39.070Z,66
2019-04-05T07:56:39.093Z,63
2019-04-05T07:57:40.102Z,58
2019-04-05T07:58:39.201Z,58
2019-04-05T07:59:39.393Z,63
2019-04-05T08:00:39.426Z,64
2019-04-05T08:01:39.449Z,58
2019-04-05T08:02:39.484Z,54
2019-04-05T08:03:39.582Z,53
2019-04-05T08:04:39.613Z,48
2019-04-05T08:05:39.596Z,42
2019-04-05T08:06:39.653Z,42
2019-04-05T08:07:40.814Z,45
2019-04-05T08:08:39.911Z,48
2019-04-05T08:09:39.905Z,48
2019-04-05T08:10:40.002Z,47
2019-04-05T08:11:41.051Z,45
2019-04-05T08:12:40.134Z,44
2019-04-05T08:13:40.313Z,46
2019-04-05T08:14:40.514Z,49
2019-04-05T08:15:40.564Z,50
2019-04-05T08:16:40.588Z,50
2019-04-05T08:17:40.578Z,49
2019-04-05T08:18:40.764Z,46
2019-04-05T08:19:41.919Z,42
2019-04-05T08:20:41.009Z,40
2019-04-05T08:21:41.022Z,38
2019-04-05T08:22:41.029Z,37
2019-04-05T08:23:41.041Z,43
2019-04-05T08:24:41.042Z,49
2019-04-05T08:25:41.434Z,52
2019-04-05T08:26:41.075Z,48
2019-04-05T08:27:41.251Z,45
2019-04-05T08:28:41.236Z,41
2019-04-05T08:29:41.433Z,39
2019-04-05T08:30:41.454Z,38
2019-04-05T08:31:41.482Z,35
2019-04-05T08:32:41.661Z,33
2019-04-05T08:33:43.646Z,31
2019-04-05T08:34:41.790Z,30
2019-04-05T08:35:41.957Z,29
2019-04-05T08:36:41.984Z,28
2019-04-05T08:37:42.597Z,28
2019-04-05T08:38:42.190Z,29
2019-04-05T08:39:42.247Z,30
2019-04-05T08:40:42.408Z,31
2019-04-05T08:41:42.527Z,32
2019-04-05T08:42:42.551Z,33
2019-04-05T08:43:42.741Z,33
2019-04-05T08:44:42.895Z,33
2019-04-05T08:45:42.939Z,35
2019-04-05T08:46:42.970Z,40
2019-04-05T08:47:43.223Z,43
2019-04-05T08:48:43.410Z,46
2019-04-05T08:49:44.981Z,44
2019-04-05T08:50:43.319Z,41
2019-04-05T08:51:43.471Z,37
2019-04-05T08:52:43.510Z,36
2019-04-05T08:53:43.621Z,36
2019-04-05T08:54:43.670Z,37
2019-04-05T08:55:43.717Z,39
2019-04-05T08:56:43.758Z,41
2019-04-05T08:57:43.779Z,42
2019-04-05T08:58:43.806Z,42
2019-04-05T08:59:43.824Z,43
2019-04-05T09:00:43.961Z,44
2019-04-05T09:01:44.308Z,43
2019-04-05T09:02:44.305Z,41
2019-04-05T09:03:44.278Z,37
2019-04-05T09:04:44.465Z,34
2019-04-05T09:05:44.300Z,32
2019-04-05T09:06:44.588Z,33
2019-04-05T09:07:44.417Z,36
2019-04-05T09:08:44.429Z,36
2019-04-05T09:09:45.571Z,39
2019-04-05T09:10:45.163Z,43
2019-04-05T09:11:45.617Z,44
2019-04-05T09:12:44.718Z,47
2019-04-05T09:13:44.747Z,50
2019-04-05T09:14:44.947Z,51
2019-04-05T09:15:44.931Z,52
2019-04-05T09:16:44.942Z,52
2019-04-05T09:17:44.925Z,54
2019-04-05T09:18:45.100Z,57
2019-04-05T09:19:45.305Z,57
2019-04-05T09:20:46.298Z,56
2019-04-05T09:21:45.366Z,56
2019-04-05T09:22:45.411Z,55
2019-04-05T09:23:45.401Z,54
2019-04-05T09:24:45.621Z,53
2019-04-05T09:25:45.652Z,58
2019-04-05T09:26:46.099Z,62
2019-04-05T09:27:46.731Z,67
2019-04-05T09:28:45.848Z,68
2019-04-05T09:29:46.027Z,66
2019-04-05T09:30:46.146Z,68
2019-04-05T09:31:47.017Z,73
2019-04-05T09:32:46.250Z,81
2019-04-05T09:33:46.372Z,86
2019-04-05T09:34:46.430Z,90
2019-04-05T09:35:46.470Z,99
2019-04-05T09:36:46.537Z,112
2019-04-05T09:37:46.556Z,125
2019-04-05T09:38:46.733Z,133
2019-04-05T09:39:46.773Z,132
2019-04-05T09:40:47.076Z,127
2019-04-05T09:41:46.955Z,119
2019-04-05T09:42:47.778Z,109
2019-04-05T09:43:47.114Z,105
2019-04-05T09:44:49.774Z,104
2019-04-05T09:45:48.431Z,102
2019-04-05T09:46:50.975Z,102
2019-04-05T09:47:48.478Z,107
2019-04-05T09:48:47.433Z,114
2019-04-05T09:49:47.683Z,116
2019-04-05T09:50:47.678Z,118
2019-04-05T09:51:47.745Z,122
2019-04-05T09:52:47.834Z,124
2019-04-05T09:53:47.873Z,124
2019-04-05T09:54:47.906Z,126
2019-04-05T09:55:48.117Z,125
2019-04-05T09:56:56.843Z,121
2019-04-05T09:57:48.606Z,119
2019-04-05T09:58:48.199Z,125
2019-04-05T09:59:48.133Z,133
2019-04-05T10:00:48.128Z,139
2019-04-05T10:01:48.146Z,144
2019-04-05T10:02:48.181Z,142
2019-04-05T10:03:48.216Z,131
2019-04-05T10:04:48.239Z,128
2019-04-05T10:05:48.387Z,121
2019-04-05T10:06:48.421Z,110
2019-04-05T10:07:54.492Z,98
2019-04-05T10:08:48.551Z,92
2019-04-05T10:09:50.383Z,90
2019-04-05T10:10:49.987Z,91
2019-04-05T10:11:49.866Z,93
2019-04-05T10:12:48.966Z,90
2019-04-05T10:13:51.393Z,93
2019-04-05T10:14:50.027Z,99
2019-04-05T10:15:49.428Z,100
2019-04-05T10:16:49.118Z,100
2019-04-05T10:17:49.150Z,101
2019-04-05T10:18:51.469Z,97
2019-04-05T10:19:50.464Z,85
2019-04-05T10:20:49.375Z,74
2019-04-05T10:21:49.292Z,67
2019-04-05T10:22:49.275Z,68
2019-04-05T10:23:50.536Z,68
2019-04-05T10:24:49.360Z,73
2019-04-05T10:25:49.484Z,77
2019-04-05T10:26:49.639Z,76
2019-04-05T10:27:49.653Z,73
2019-04-05T10:28:50.773Z,78
2019-04-05T10:29:51.210Z,83
2019-04-05T10:30:51.884Z,82
2019-04-05T10:31:50.243Z,82
2019-04-05T10:32:50.079Z,82
2019-04-05T10:33:50.095Z,85
2019-04-05T10:34:50.153Z,87
2019-04-05T10:35:50.167Z,88
2019-04-05T10:36:50.168Z,89
2019-04-05T10:37:51.503Z,87
2019-04-05T10:38:50.286Z,83
2019-04-05T10:39:50.283Z,82
2019-04-05T10:40:50.291Z,81
2019-04-05T10:42:02.622Z,83
2019-04-05T10:42:51.280Z,88
2019-04-05T10:43:50.530Z,97
2019-04-05T10:44:51.473Z,101
2019-04-05T10:45:50.618Z,97
2019-04-05T10:46:50.616Z,93
2019-04-05T10:47:50.601Z,88
2019-04-05T10:48:50.880Z,86
2019-04-05T10:50:02.141Z,82
2019-04-05T10:50:51.981Z,77
2019-04-05T10:51:51.082Z,77
2019-04-05T10:52:51.221Z,80
2019-04-05T10:53:51.189Z,79
2019-04-05T10:54:51.174Z,77
2019-04-05T10:55:51.175Z,76
2019-04-05T10:56:51.204Z,76
2019-04-05T10:57:51.230Z,78
2019-04-05T10:58:51.227Z,83
2019-04-05T10:59:51.412Z,83
2019-04-05T11:00:51.404Z,83
2019-04-05T11:01:51.590Z,80
2019-04-05T11:02:51.591Z,79
2019-04-05T11:03:51.640Z,84
2019-04-05T11:04:51.605Z,95
2019-04-05T11:05:51.698Z,100
2019-04-05T11:06:51.707Z,100
2019-04-05T11:07:51.827Z,97
2019-04-05T11:08:51.975Z,89
2019-04-05T11:09:53.524Z,80
2019-04-05T11:10:51.985Z,77
2019-04-05T11:11:51.995Z,77
2019-04-05T11:12:52.025Z,76
2019-04-05T11:13:52.041Z,72
2019-04-05T11:14:52.043Z,66
2019-04-05T11:15:52.216Z,64
2019-04-05T11:16:58.090Z,64
2019-04-05T11:17:52.374Z,61
2019-04-05T11:18:52.400Z,60
2019-04-05T11:19:53.434Z,61
2019-04-05T11:20:52.504Z,64
2019-04-05T11:21:52.530Z,69
2019-04-05T11:22:52.514Z,70
2019-04-05T11:23:53.489Z,75
2019-04-05T11:24:52.712Z,82
2019-04-05T11:25:52.743Z,91
2019-04-05T11:26:52.736Z,97
2019-04-05T11:27:52.891Z,99
2019-04-05T11:28:52.951Z,101
2019-04-05T11:29:52.916Z,102
2019-04-05T11:30:52.965Z,101
2019-04-05T11:31:57.171Z,101
2019-04-05T11:32:53.095Z,98
2019-04-05T11:33:53.227Z,98
2019-04-05T11:34:53.257Z,97
2019-04-05T11:35:53.279Z,96
2019-04-05T11:36:53.280Z,96
2019-04-05T11:37:54.373Z,94
2019-04-05T11:38:53.229Z,91
2019-04-05T11:39:53.394Z,90
2019-04-05T11:40:53.567Z,90
2019-04-05T11:41:53.567Z,85
2019-04-05T11:42:53.734Z,80
2019-04-05T11:43:53.748Z,80
2019-04-05T11:44:54.863Z,84
2019-04-05T11:45:53.898Z,87
2019-04-05T11:46:54.088Z,88
2019-04-05T11:47:55.652Z,91
2019-04-05T11:48:54.050Z,95
2019-04-05T11:49:55.344Z,96
2019-04-05T11:50:54.099Z,96
2019-04-05T11:51:54.248Z,95
2019-04-05T11:52:54.450Z,94
2019-04-05T11:53:54.418Z,91
2019-04-05T11:54:54.592Z,87
2019-04-05T11:55:54.558Z,82
2019-04-05T11:56:55.737Z,81
2019-04-05T11:57:55.045Z,81
2019-04-05T11:58:54.827Z,82
2019-04-05T11:59:54.841Z,84
2019-04-05T12:00:54.838Z,83
2019-04-05T12:01:55.014Z,78
2019-04-05T12:02:55.041Z,73
2019-04-05T12:03:55.023Z,66
2019-04-05T12:04:55.214Z,61
2019-04-05T12:05:55.199Z,59
2019-04-05T12:06:55.164Z,56
2019-04-05T12:08:00.571Z,57
2019-04-05T12:08:55.568Z,57
2019-04-05T12:09:55.560Z,58
2019-04-05T12:10:55.608Z,55
2019-04-05T12:11:55.751Z,54
2019-04-05T12:12:55.840Z,59
2019-04-05T12:13:55.859Z,64
2019-04-05T12:14:55.915Z,71
2019-04-05T12:15:58.107Z,75
2019-04-05T12:16:57.036Z,76
2019-04-05T12:17:57.167Z,75
2019-04-05T12:18:58.849Z,73
2019-04-05T12:19:57.356Z,70
2019-04-05T12:21:00.201Z,68
2019-04-05T12:21:57.555Z,66
2019-04-05T12:22:57.585Z,66
2019-04-05T12:23:56.641Z,65
2019-04-05T12:24:56.892Z,64
2019-04-05T12:25:56.893Z,66
2019-04-05T12:26:58.353Z,62
2019-04-05T12:28:06.005Z,59
2019-04-05T12:28:58.376Z,55
2019-04-05T12:29:57.561Z,56
2019-04-05T12:30:57.605Z,57
2019-04-05T12:31:57.587Z,60
2019-04-05T12:32:57.646Z,60
2019-04-05T12:33:58.614Z,61
2019-04-05T12:34:57.735Z,61
2019-04-05T12:35:57.707Z,62
2019-04-05T12:36:57.769Z,63
2019-04-05T12:37:57.723Z,65
2019-04-05T12:38:58.880Z,61
2019-04-05T12:39:58.941Z,56
2019-04-05T12:40:58.997Z,55
2019-04-05T12:41:58.041Z,56
2019-04-05T12:42:58.072Z,57
2019-04-05T12:43:58.058Z,62
2019-04-05T12:44:58.033Z,67
2019-04-05T12:45:58.036Z,67
2019-04-05T12:46:58.207Z,66
2019-04-05T12:47:59.181Z,67
2019-04-05T12:48:58.200Z,63
2019-04-05T12:49:58.273Z,60
2019-04-05T12:51:01.184Z,59
2019-04-05T12:51:59.526Z,64
2019-04-05T12:52:58.600Z,70
2019-04-05T12:53:58.785Z,74
2019-04-05T12:54:58.746Z,75
2019-04-05T12:55:58.717Z,76
2019-04-05T12:56:59.121Z,72
2019-04-05T12:57:58.997Z,70
2019-04-05T12:58:59.159Z,69
2019-04-05T12:59:59.151Z,70
2019-04-05T13:00:59.175Z,72
2019-04-05T13:02:00.233Z,70
2019-04-05T13:02:59.290Z,68
2019-04-05T13:03:59.271Z,69
2019-04-05T13:04:59.439Z,76
2019-04-05T13:05:59.435Z,78
2019-04-05T13:06:59.587Z,78
2019-04-05T13:07:59.591Z,74
2019-04-05T13:08:59.606Z,68
2019-04-05T13:09:59.681Z,65
2019-04-05T13:10:59.727Z,64
2019-04-05T13:11:59.738Z,64
2019-04-05T13:12:59.802Z,61
2019-04-05T13:13:59.904Z,59
2019-04-05T13:15:11.148Z,59
2019-04-05T13:16:01.055Z,57
2019-04-05T13:17:02.541Z,54
2019-04-05T13:18:01.135Z,54
2019-04-05T13:19:00.809Z,54
2019-04-05T13:20:00.798Z,52
2019-04-05T13:21:01.120Z,50
2019-04-05T13:22:02.763Z,49
2019-04-05T13:23:03.249Z,48
2019-04-05T13:24:03.841Z,48
2019-04-05T13:25:01.843Z,47
2019-04-05T13:26:01.942Z,46
2019-04-05T13:27:02.217Z,46
2019-04-05T13:28:12.684Z,44
2019-04-05T13:29:02.193Z,43
2019-04-05T13:30:01.278Z,43
2019-04-05T13:31:01.288Z,43
2019-04-05T13:32:01.275Z,45
2019-04-05T13:33:01.325Z,44
2019-04-05T13:34:01.338Z,43
2019-04-05T13:35:01.350Z,41
2019-04-05T13:36:01.343Z,40
2019-04-05T13:37:02.465Z,40
2019-04-05T13:38:02.571Z,40
2019-04-05T13:39:01.615Z,41
2019-04-05T13:40:01.795Z,43
2019-04-05T13:41:02.205Z,44
2019-04-05T13:42:02.491Z,44
2019-04-05T13:43:02.619Z,44
2019-04-05T13:44:02.340Z,43
2019-04-05T13:45:02.524Z,42
2019-04-05T13:46:02.357Z,43
2019-04-05T13:47:03.356Z,43
2019-04-05T13:48:02.457Z,42
2019-04-05T13:49:03.587Z,42
2019-04-05T13:50:03.659Z,41
2019-04-05T13:51:03.703Z,40
2019-04-05T13:52:06.510Z,40
2019-04-05T13:53:03.775Z,38
2019-04-05T13:54:03.873Z,36
2019-04-05T13:55:03.929Z,34
2019-04-05T13:56:04.009Z,32
2019-04-05T13:57:03.089Z,32
2019-04-05T13:58:05.078Z,31
2019-04-05T13:59:03.241Z,30
2019-04-05T14:00:03.317Z,30
2019-04-05T14:01:03.275Z,28
2019-04-05T14:02:06.156Z,27
2019-04-05T14:03:03.450Z,26
2019-04-05T14:04:03.463Z,26
2019-04-05T14:05:03.449Z,27
2019-04-05T14:06:03.616Z,26
2019-04-05T14:07:04.797Z,26
2019-04-05T14:08:10.137Z,27
2019-04-05T14:09:04.042Z,28
2019-04-05T14:10:04.085Z,27
2019-04-05T14:11:05.088Z,24
2019-04-05T14:12:04.145Z,24
2019-04-05T14:13:04.272Z,23
2019-04-05T14:14:04.442Z,22
2019-04-05T14:15:05.620Z,21
2019-04-05T14:16:06.172Z,21
2019-04-05T14:17:05.826Z,20
2019-04-05T14:18:05.875Z,20
2019-04-05T14:19:18.227Z,21
2019-04-05T14:20:05.068Z,22
2019-04-05T14:21:05.050Z,22
2019-04-05T14:22:08.587Z,22
2019-04-05T14:23:05.174Z,22
2019-04-05T14:24:05.142Z,22
2019-04-05T14:25:05.317Z,21
2019-04-05T14:26:05.479Z,21
2019-04-05T14:27:05.622Z,21
2019-04-05T14:28:15.327Z,20
2019-04-05T14:29:05.864Z,21